Time;durP1;ratioP1;P1;durP2;ratioP2;P2;SDS_P1;SDS_P2;PMS_P1;PMS_P2;Temp;Humidity;BMP_temperature;BMP_pressure;BME280_temperature;BME280_humidity;BME280_pressure;Samples;Min_cycle;Max_cycle;Signal;HPM_P1;HPM_P2
2023/03/28 00:01:41;;;;;;;33.95;32.25;;;;;;;0.26;82.24;98830.53;5035084;28;20079;-76
2023/03/28 00:04:10;;;;;;;35.17;33.58;;;;;;;0.31;82.77;98825.56;5034471;28;20116;-76
2023/03/28 00:06:37;;;;;;;34.38;32.83;;;;;;;0.33;82.50;98842.13;5051718;28;20344;-76
2023/03/28 00:09:04;;;;;;;35.50;33.72;;;;;;;0.42;82.28;98841.97;5035342;28;20115;-75
2023/03/28 00:11:29;;;;;;;32.63;30.95;;;;;;;0.51;81.27;98840.19;5031972;28;20028;-75
2023/03/28 00:13:59;;;;;;;33.70;32.03;;;;;;;0.40;82.42;98854.56;5011898;28;20399;-76
2023/03/28 00:16:31;;;;;;;34.33;32.63;;;;;;;0.34;81.84;98855.22;5030016;28;20104;-76
2023/03/28 00:19:05;;;;;;;28.63;27.02;;;;;;;0.47;81.01;98852.06;5033064;28;20091;-76
2023/03/28 00:21:36;;;;;;;31.80;30.30;;;;;;;0.43;80.94;98859.53;4998660;28;20041;-76
2023/03/28 00:24:04;;;;;;;27.23;25.92;;;;;;;0.48;80.53;98867.00;5014432;28;20407;-76
2023/03/28 00:26:32;;;;;;;29.00;27.58;;;;;;;0.45;81.12;98868.16;4998719;28;20538;-76
2023/03/28 00:28:57;;;;;;;27.55;26.15;;;;;;;0.44;80.43;98865.66;5015083;28;20152;-77
2023/03/28 00:31:24;;;;;;;27.75;26.55;;;;;;;0.38;80.96;98866.31;5014840;28;20505;-77
2023/03/28 00:33:50;;;;;;;27.42;26.05;;;;;;;0.26;80.94;98864.94;5014608;28;20041;-77
2023/03/28 00:36:25;;;;;;;23.88;22.75;;;;;;;0.27;80.74;98879.88;5031544;28;20387;-77
2023/03/28 00:38:52;;;;;;;29.93;28.43;;;;;;;0.23;80.80;98868.78;5000043;28;20041;-77
2023/03/28 00:41:20;;;;;;;27.75;26.38;;;;;;;0.22;80.75;98871.56;5031801;28;20027;-77
2023/03/28 00:43:47;;;;;;;24.73;23.48;;;;;;;0.27;80.60;98870.13;5015842;28;20037;-78
2023/03/28 00:46:18;;;;;;;25.98;24.58;;;;;;;0.25;81.47;98868.63;5011364;28;20082;-76
2023/03/28 00:48:50;;;;;;;25.30;23.90;;;;;;;0.21;80.95;98875.22;5026848;28;20446;-76
2023/03/28 00:51:18;;;;;;;27.75;26.35;;;;;;;0.21;81.38;98880.53;5014580;28;20033;-76
2023/03/28 00:53:44;;;;;;;27.20;25.90;;;;;;;0.26;80.90;98878.19;5018307;28;20399;-77
2023/03/28 00:56:11;;;;;;;30.33;28.52;;;;;;;0.26;80.75;98878.19;5034170;28;20029;-77
2023/03/28 00:58:41;;;;;;;28.70;27.08;;;;;;;0.14;81.46;98884.81;5036663;28;20508;-78
2023/03/28 01:01:09;;;;;;;28.58;27.10;;;;;;;0.15;80.43;98881.16;5038491;28;20049;-78
2023/03/28 01:03:40;;;;;;;29.10;27.60;;;;;;;0.13;81.24;98883.16;5037693;28;20501;-78
2023/03/28 01:06:06;;;;;;;28.27;26.83;;;;;;;0.23;80.84;98889.13;5038304;28;20102;-78
2023/03/28 01:08:39;;;;;;;28.70;27.30;;;;;;;0.23;81.70;98899.72;5037732;28;20021;-78
2023/03/28 01:11:05;;;;;;;25.63;24.02;;;;;;;0.23;81.20;98883.84;5004574;28;20472;-78
2023/03/28 01:13:33;;;;;;;27.45;26.02;;;;;;;0.16;81.70;98882.84;5038653;28;20044;-79
2023/03/28 01:16:01;;;;;;;28.63;27.13;;;;;;;0.15;81.82;98902.34;5018439;28;20025;-77
2023/03/28 01:18:29;;;;;;;23.92;22.73;;;;;;;0.18;81.50;98892.28;5015760;28;20029;-78
2023/03/28 01:21:36;;;;;;;26.23;24.83;;;;;;;0.12;81.98;98887.59;5017501;28;20164;-77
2023/03/28 01:24:44;;;;;;;29.10;27.40;;;;;;;0.20;82.10;98895.59;5000765;28;20105;-77
2023/03/28 01:27:16;;;;;;;26.08;24.48;;;;;;;0.22;81.63;98898.06;5011231;28;20130;-77
2023/03/28 01:30:25;;;;;;;29.45;27.85;;;;;;;0.24;81.20;98890.78;5014728;28;20034;-76
2023/03/28 01:33:52;;;;;;;27.55;26.15;;;;;;;0.23;81.71;98900.56;4978408;28;20564;-75
2023/03/28 01:36:17;;;;;;;31.08;29.65;;;;;;;0.22;81.63;98898.06;5030246;28;20033;-75
2023/03/28 01:38:54;;;;;;;29.58;27.95;;;;;;;0.33;82.05;98903.03;5013832;28;20033;-75
2023/03/28 01:41:51;;;;;;;31.30;29.60;;;;;;;0.22;82.11;98898.06;5030302;28;20037;-75
2023/03/28 01:44:29;;;;;;;30.05;28.60;;;;;;;0.29;81.02;98899.06;5029856;28;20030;-75
2023/03/28 01:47:09;;;;;;;31.10;29.25;;;;;;;0.21;81.64;98897.22;5013610;28;20048;-75
2023/03/28 01:49:45;;;;;;;32.25;30.55;;;;;;;0.17;81.33;98905.66;5030264;28;20030;-75
2023/03/28 01:52:19;;;;;;;34.25;32.63;;;;;;;0.12;81.90;98907.97;5013643;28;20048;-75
2023/03/28 01:55:00;;;;;;;34.05;32.25;;;;;;;0.23;81.67;98899.72;5013470;28;20037;-75
2023/03/28 01:57:49;;;;;;;32.55;30.85;;;;;;;0.13;81.87;98904.31;5013722;28;20030;-76
2023/03/28 02:00:28;;;;;;;31.15;29.58;;;;;;;0.05;81.69;98906.97;5030349;28;20037;-75
2023/03/28 02:03:11;;;;;;;33.88;32.00;;;;;;;0.09;82.16;98908.28;5030318;28;20696;-75
2023/03/28 02:05:43;;;;;;;31.33;29.58;;;;;;;0.05;82.09;98909.63;5030087;28;20037;-75
2023/03/28 02:08:13;;;;;;;30.73;29.10;;;;;;;0.07;81.63;98913.72;4997688;28;20059;-75
2023/03/28 02:10:46;;;;;;;35.22;33.63;;;;;;;-0.12;82.08;98912.19;5013644;28;20029;-75
2023/03/28 02:13:36;;;;;;;34.75;33.03;;;;;;;-0.16;82.59;98910.84;5015594;28;20036;-74
2023/03/28 02:16:23;;;;;;;33.30;31.48;;;;;;;-0.04;81.79;98903.44;5016422;28;20033;-74
2023/03/28 02:19:03;;;;;;;36.42;34.53;;;;;;;-0.13;83.12;98907.88;5022595;28;20041;-74
2023/03/28 02:21:57;;;;;;;37.00;35.00;;;;;;;-0.06;82.52;98911.56;5013498;28;20484;-74
2023/03/28 02:24:50;;;;;;;36.50;34.63;;;;;;;-0.19;82.33;98911.16;5028061;28;20043;-75
2023/03/28 02:27:36;;;;;;;34.38;32.42;;;;;;;-0.27;83.10;98907.66;5052723;28;20111;-75
2023/03/28 02:30:15;;;;;;;37.50;35.15;;;;;;;-0.25;82.87;98910.97;5037061;28;20032;-76
2023/03/28 02:32:49;;;;;;;36.15;34.05;;;;;;;-0.30;83.24;98903.50;5037522;28;20041;-76
2023/03/28 02:35:19;;;;;;;37.45;35.60;;;;;;;-0.39;83.16;98915.03;5037665;28;20613;-77
2023/03/28 02:37:53;;;;;;;37.40;35.20;;;;;;;-0.31;83.67;98917.75;5036796;28;20029;-76
2023/03/28 02:40:37;;;;;;;38.60;36.63;;;;;;;-0.27;83.36;98919.06;5037040;28;20037;-75
2023/03/28 02:43:28;;;;;;;36.92;34.85;;;;;;;-0.40;82.99;98929.28;5023005;28;20088;-75
2023/03/28 02:46:08;;;;;;;40.90;38.65;;;;;;;-0.34;83.41;98922.50;5017067;28;20034;-75
2023/03/28 02:48:57;;;;;;;36.35;34.25;;;;;;;-0.33;82.87;98903.00;5009535;28;20025;-76
2023/03/28 02:51:41;;;;;;;39.72;37.53;;;;;;;-0.37;82.73;98922.81;5025043;28;20495;-75
2023/03/28 02:54:22;;;;;;;40.15;38.03;;;;;;;-0.35;83.46;98921.66;5032949;28;20384;-74
2023/03/28 02:57:10;;;;;;;43.33;40.78;;;;;;;-0.43;84.11;98924.28;5032865;28;20462;-74
2023/03/28 02:59:56;;;;;;;40.90;38.72;;;;;;;-0.40;83.94;98923.97;5013287;28;20038;-74
2023/03/28 03:02:22;;;;;;;42.03;39.75;;;;;;;-0.49;84.04;98914.31;5014093;28;20067;-74
2023/03/28 03:04:56;;;;;;;43.92;41.63;;;;;;;-0.41;83.59;98926.75;5035930;28;20052;-74
2023/03/28 03:07:22;;;;;;;35.75;33.72;;;;;;;-0.31;83.18;98925.69;5036349;28;20032;-74
2023/03/28 03:09:52;;;;;;;37.15;35.20;;;;;;;-0.31;83.66;98928.31;5036324;28;20025;-75
2023/03/28 03:12:18;;;;;;;38.30;36.20;;;;;;;-0.29;83.31;98934.28;5035983;28;20044;-74
2023/03/28 03:14:43;;;;;;;33.30;31.60;;;;;;;-0.17;83.50;98934.84;5019338;28;20025;-74
2023/03/28 03:17:32;;;;;;;37.47;35.30;;;;;;;-0.15;82.71;98936.34;5040138;28;20088;-74
2023/03/28 03:19:58;;;;;;;36.08;34.00;;;;;;;-0.18;82.33;98934.00;5000104;28;20098;-74
2023/03/28 03:22:33;;;;;;;35.33;33.28;;;;;;;-0.26;82.97;98925.19;5017139;28;20053;-74
2023/03/28 03:25:05;;;;;;;32.67;30.77;;;;;;;-0.08;81.73;98933.88;5032496;28;20076;-74
2023/03/28 03:27:33;;;;;;;33.67;31.77;;;;;;;-0.20;82.49;98930.69;5000678;28;20120;-75
2023/03/28 03:29:59;;;;;;;33.05;31.05;;;;;;;-0.15;82.46;98933.69;5024536;28;20052;-74
2023/03/28 03:32:33;;;;;;;30.02;28.15;;;;;;;-0.13;81.67;98936.16;5036966;28;20029;-74
2023/03/28 03:35:02;;;;;;;31.08;29.13;;;;;;;-0.14;82.74;98937.97;5035939;28;20037;-73
2023/03/28 03:37:28;;;;;;;30.90;29.02;;;;;;;-0.21;82.29;98939.59;5052306;28;20036;-74
2023/03/28 03:39:53;;;;;;;31.63;29.73;;;;;;;-0.29;82.87;98947.50;5034922;28;20032;-74
2023/03/28 03:42:25;;;;;;;30.33;28.42;;;;;;;-0.28;82.39;98940.41;5036761;28;20106;-74
2023/03/28 03:44:53;;;;;;;31.42;29.33;;;;;;;-0.32;82.26;98936.41;5035615;28;20052;-74
2023/03/28 03:47:19;;;;;;;30.65;28.73;;;;;;;-0.22;81.75;98942.41;5035595;28;20025;-75
2023/03/28 03:49:47;;;;;;;30.15;28.00;;;;;;;-0.26;81.92;98944.56;5035917;28;20454;-75
2023/03/28 03:52:13;;;;;;;29.30;27.58;;;;;;;-0.35;81.83;98942.84;5035455;28;20060;-75
2023/03/28 03:54:38;;;;;;;31.58;29.77;;;;;;;-0.34;81.92;98949.78;5036286;28;20044;-74
2023/03/28 03:57:04;;;;;;;31.05;29.13;;;;;;;-0.23;81.67;98952.16;5036090;28;20116;-74
2023/03/28 03:59:30;;;;;;;31.15;29.20;;;;;;;-0.20;81.54;98954.50;5035488;28;20043;-74
2023/03/28 04:01:56;;;;;;;39.50;36.35;;;;;;;-0.28;81.89;98954.44;5035471;28;20017;-76
2023/03/28 04:04:44;;;;;;;34.88;32.55;;;;;;;-0.19;81.57;98958.00;5037310;28;20031;-74
2023/03/28 04:07:18;;;;;;;31.42;29.60;;;;;;;-0.18;81.25;98949.88;5035317;28;20081;-74
2023/03/28 04:09:46;;;;;;;33.45;31.35;;;;;;;-0.18;81.83;98960.47;5018354;28;20034;-74
2023/03/28 04:12:12;;;;;;;33.00;31.20;;;;;;;-0.11;81.26;98961.50;5015130;28;20028;-74
2023/03/28 04:15:05;;;;;;;33.42;31.27;;;;;;;-0.15;82.54;98959.31;5016654;28;20048;-74
2023/03/28 04:17:33;;;;;;;30.80;28.73;;;;;;;-0.19;81.81;98953.50;5015687;28;20033;-74
2023/03/28 04:20:12;;;;;;;30.95;29.10;;;;;;;-0.33;82.96;98961.22;5012365;28;20026;-74
2023/03/28 04:22:59;;;;;;;38.58;36.28;;;;;;;-0.20;82.99;98956.31;5012988;28;20037;-76
2023/03/28 04:25:25;;;;;;;37.80;35.58;;;;;;;-0.37;83.22;98968.63;5011564;28;20503;-74
2023/03/28 04:27:53;;;;;;;39.45;36.97;;;;;;;-0.40;84.21;98965.47;5018712;28;20036;-75
2023/03/28 04:30:20;;;;;;;43.10;40.45;;;;;;;-0.34;83.80;98970.97;5019638;28;20230;-75
2023/03/28 04:33:04;;;;;;;40.25;37.72;;;;;;;-0.22;83.54;98972.34;5014018;28;20040;-76
2023/03/28 04:35:36;;;;;;;41.53;38.90;;;;;;;-0.01;82.97;98979.91;5010284;28;20120;-75
2023/03/28 04:38:01;;;;;;;41.97;39.53;;;;;;;-0.09;83.10;98975.38;5011521;28;20113;-75
2023/03/28 04:40:28;;;;;;;41.50;39.15;;;;;;;0.15;83.32;98982.63;5025908;28;20036;-75
2023/03/28 04:43:16;;;;;;;43.50;40.10;;;;;;;0.17;82.56;98990.41;5031191;28;20064;-76
2023/03/28 04:45:47;;;;;;;47.05;43.72;;;;;;;0.13;83.17;98994.34;5014602;28;20467;-76
2023/03/28 04:48:15;;;;;;;46.10;42.88;;;;;;;0.08;83.12;98991.34;5014653;28;20060;-75
2023/03/28 04:50:42;;;;;;;41.20;38.67;;;;;;;-0.05;84.24;98989.97;5033175;28;20116;-76
2023/03/28 04:53:07;;;;;;;42.05;39.55;;;;;;;-0.06;82.94;98985.69;5033980;28;20091;-76
2023/03/28 04:55:34;;;;;;;39.65;37.25;;;;;;;0.05;83.47;98994.34;5034025;28;20084;-75
2023/03/28 04:58:12;;;;;;;50.35;46.95;;;;;;;-0.14;83.50;98990.91;5034345;28;20120;-76
2023/03/28 05:00:38;;;;;;;44.67;41.92;;;;;;;-0.21;84.03;98994.38;5027663;28;20121;-76
2023/03/28 05:03:03;;;;;;;40.88;38.33;;;;;;;-0.23;83.03;98999.81;5027734;28;20086;-75
2023/03/28 05:05:33;;;;;;;43.53;40.75;;;;;;;-0.14;83.42;98985.63;5015462;28;20391;-75
2023/03/28 05:07:58;;;;;;;42.10;39.65;;;;;;;-0.21;83.57;98997.00;5020890;28;20025;-75
2023/03/28 05:10:24;;;;;;;54.25;50.95;;;;;;;-0.15;83.39;98999.03;5027258;28;20053;-76
2023/03/28 05:12:50;;;;;;;57.40;53.42;;;;;;;-0.13;82.80;98989.94;5014256;28;20181;-76
2023/03/28 05:15:16;;;;;;;49.47;45.92;;;;;;;-0.09;82.52;98995.72;5014300;28;20140;-75
2023/03/28 05:17:59;;;;;;;58.00;54.35;;;;;;;-0.09;82.50;99001.88;5014496;28;20026;-75
2023/03/28 05:20:35;;;;;;;382.02;346.70;;;;;;;0.04;82.83;99000.59;5022641;28;20041;-76
2023/03/28 05:23:01;;;;;;;151.45;138.85;;;;;;;-0.07;82.79;98999.09;5012505;28;20087;-76
2023/03/28 05:25:28;;;;;;;244.25;224.18;;;;;;;-0.09;83.22;99012.44;5014246;28;20028;-75
2023/03/28 05:27:54;;;;;;;47.35;44.20;;;;;;;-0.13;82.96;99005.81;5014497;28;20120;-75
2023/03/28 05:30:20;;;;;;;42.20;39.45;;;;;;;-0.01;82.58;99020.44;5014169;28;20567;-74
2023/03/28 05:32:50;;;;;;;40.03;37.35;;;;;;;0.06;82.11;99014.50;5013718;28;20458;-75
2023/03/28 05:35:15;;;;;;;35.22;32.50;;;;;;;0.20;81.82;99027.16;5030276;28;20123;-72
2023/03/28 05:37:42;;;;;;;39.08;36.47;;;;;;;0.16;82.14;99026.66;5030269;28;20032;-75
2023/03/28 05:40:09;;;;;;;36.05;33.63;;;;;;;0.13;82.06;99032.25;5030244;28;20029;-74
2023/03/28 05:42:37;;;;;;;37.92;34.78;;;;;;;0.15;82.58;99029.44;5014047;28;20044;-75
2023/03/28 05:45:11;;;;;;;32.72;30.38;;;;;;;0.21;80.44;99034.13;5013529;28;20033;-75
2023/03/28 05:47:55;;;;;;;33.42;31.08;;;;;;;0.28;80.66;99040.44;5030519;28;20061;-75
2023/03/28 05:50:22;;;;;;;33.65;30.88;;;;;;;0.29;81.15;99047.41;5013911;28;20029;-76
2023/03/28 05:52:48;;;;;;;32.17;29.77;;;;;;;0.28;80.59;99040.44;5013302;28;20095;-75
2023/03/28 05:55:13;;;;;;;34.33;31.70;;;;;;;0.21;81.71;99056.13;4999981;28;20124;-75
2023/03/28 05:57:39;;;;;;;34.42;32.28;;;;;;;0.26;81.73;99058.28;4997461;28;20022;-76
2023/03/28 06:00:11;;;;;;;34.20;31.95;;;;;;;0.39;81.54;99064.84;5012387;28;20041;-76
2023/03/28 06:02:43;;;;;;;32.00;29.65;;;;;;;0.41;80.62;99073.47;5017514;28;20035;-76
2023/03/28 06:05:10;;;;;;;36.13;33.53;;;;;;;0.45;81.21;99071.31;5001365;28;20036;-75
2023/03/28 06:07:37;;;;;;;35.72;33.38;;;;;;;0.49;80.22;99070.81;5017792;28;20025;-75
2023/03/28 06:10:05;;;;;;;34.65;32.05;;;;;;;0.54;80.24;99073.00;5002620;28;20039;-77
2023/03/28 06:12:32;;;;;;;36.08;33.72;;;;;;;0.40;81.05;99065.66;5001434;28;20057;-75
2023/03/28 06:14:59;;;;;;;36.15;33.38;;;;;;;0.44;80.90;99067.00;5017477;28;20037;-75
2023/03/28 06:17:29;;;;;;;32.72;30.52;;;;;;;0.47;80.57;99077.28;5021197;28;20112;-75
2023/03/28 06:19:57;;;;;;;28.98;26.70;;;;;;;0.48;79.74;99079.78;5016123;28;20033;-76
2023/03/28 06:22:23;;;;;;;28.80;26.70;;;;;;;0.53;79.87;99081.94;5019871;28;20021;-75
2023/03/28 06:24:53;;;;;;;25.52;23.52;;;;;;;0.48;78.56;99087.72;5021365;28;20034;-75
2023/03/28 06:27:25;;;;;;;29.23;26.83;;;;;;;0.47;79.25;99099.31;5017281;28;20029;-76
2023/03/28 06:29:51;;;;;;;27.02;24.92;;;;;;;0.48;79.95;99100.13;5012922;28;20185;-75
2023/03/28 06:32:18;;;;;;;27.50;25.42;;;;;;;0.62;79.24;99108.34;5026022;28;20032;-76
2023/03/28 06:34:43;;;;;;;25.23;23.52;;;;;;;0.58;79.66;99103.50;5042454;28;20041;-76
2023/03/28 06:37:08;;;;;;;25.95;24.05;;;;;;;0.64;79.91;99105.50;5019988;28;20026;-77
2023/03/28 06:39:55;;;;;;;30.15;27.92;;;;;;;0.59;81.22;99107.81;5015734;28;20041;-75
2023/03/28 06:42:21;;;;;;;31.23;29.02;;;;;;;0.68;79.98;99112.16;5014905;28;20403;-75
2023/03/28 06:44:54;;;;;;;25.90;24.10;;;;;;;0.64;79.44;99116.94;5017023;28;20022;-76
2023/03/28 06:47:42;;;;;;;24.83;22.98;;;;;;;0.61;79.17;99111.13;5004778;28;20049;-76
2023/03/28 06:50:08;;;;;;;22.88;21.05;;;;;;;0.67;78.99;99110.50;5029748;28;20041;-75
2023/03/28 06:52:37;;;;;;;19.33;17.55;;;;;;;0.73;78.48;99109.84;5027159;28;20047;-76
2023/03/28 06:55:05;;;;;;;23.15;21.30;;;;;;;0.81;79.29;99107.25;5029460;28;20029;-76
2023/03/28 06:57:31;;;;;;;18.77;17.35;;;;;;;0.86;76.79;99126.16;5024806;28;20358;-76
2023/03/28 07:00:11;;;;;;;16.25;14.77;;;;;;;0.92;77.55;99122.84;5022165;28;20025;-76
2023/03/28 07:02:57;;;;;;;14.60;13.27;;;;;;;0.89;77.38;99135.63;5025335;28;20732;-76
2023/03/28 07:05:22;;;;;;;13.88;12.38;;;;;;;0.99;77.00;99137.13;5018929;28;20052;-76
2023/03/28 07:07:48;;;;;;;12.88;11.40;;;;;;;1.01;76.53;99139.59;5022305;28;20049;-76
2023/03/28 07:10:13;;;;;;;15.93;13.82;;;;;;;0.98;77.49;99145.25;5028701;28;20033;-76
2023/03/28 07:12:40;;;;;;;14.98;13.25;;;;;;;0.98;77.25;99145.25;5015478;28;20036;-76
2023/03/28 07:15:06;;;;;;;12.90;10.88;;;;;;;1.02;76.22;99147.44;5014570;28;20547;-76
2023/03/28 07:17:32;;;;;;;12.50;9.52;;;;;;;1.04;76.09;99161.34;4999682;28;20027;-75
2023/03/28 07:19:57;;;;;;;11.18;10.23;;;;;;;1.09;75.74;99145.78;5020003;28;20025;-75
2023/03/28 07:22:23;;;;;;;14.00;10.48;;;;;;;1.10;76.04;99155.38;5015930;28;20021;-76
2023/03/28 07:24:49;;;;;;;13.20;11.75;;;;;;;1.05;76.57;99157.69;5018799;28;20127;-76
2023/03/28 07:27:14;;;;;;;11.70;9.88;;;;;;;1.15;76.42;99171.66;5019316;28;20092;-76
2023/03/28 07:29:40;;;;;;;11.20;9.80;;;;;;;1.28;75.63;99174.66;5011692;28;20038;-76
2023/03/28 07:32:05;;;;;;;13.88;12.30;;;;;;;1.27;76.33;99167.72;5027805;28;20068;-77
2023/03/28 07:34:30;;;;;;;14.68;13.38;;;;;;;1.45;76.94;99180.03;5015172;28;20037;-77
2023/03/28 07:36:58;;;;;;;17.05;15.32;;;;;;;1.63;76.06;99178.09;5086180;23;20052;-76
2023/03/28 07:39:42;;;;;;;16.27;14.75;;;;;;;1.54;75.41;99179.06;5034790;28;20037;-76
2023/03/28 07:42:13;;;;;;;13.65;9.80;;;;;;;1.53;74.67;99190.66;5043776;28;20082;-76
2023/03/28 07:44:39;;;;;;;14.23;12.85;;;;;;;1.56;75.93;99193.84;5050952;28;20037;-76
2023/03/28 07:47:05;;;;;;;11.32;9.90;;;;;;;1.68;73.89;99191.69;5052294;28;20027;-76
2023/03/28 07:49:31;;;;;;;10.02;7.53;;;;;;;1.49;74.17;99198.13;5027287;28;20032;-75
2023/03/28 07:51:56;;;;;;;10.88;8.32;;;;;;;1.40;73.07;99184.00;5038076;28;20111;-75
2023/03/28 07:54:23;;;;;;;13.07;8.13;;;;;;;1.50;74.52;99198.94;5045568;28;20676;-76
2023/03/28 07:56:48;;;;;;;16.30;6.43;;;;;;;1.51;73.65;99200.63;5031621;28;20486;-75
2023/03/28 07:59:26;;;;;;;9.63;6.03;;;;;;;1.57;73.17;99199.94;5035216;28;20059;-76
2023/03/28 08:01:52;;;;;;;14.32;7.15;;;;;;;1.64;74.16;99196.50;5021711;28;20024;-76
2023/03/28 08:04:18;;;;;;;12.57;8.57;;;;;;;1.83;74.54;99190.88;5044025;28;20527;-75
2023/03/28 08:07:06;;;;;;;8.18;6.55;;;;;;;1.92;72.89;99207.66;5036940;28;20490;-76
2023/03/28 08:09:32;;;;;;;10.20;5.68;;;;;;;1.88;72.42;99206.31;5027923;28;20050;-76
2023/03/28 08:12:30;;;;;;;10.52;6.28;;;;;;;1.97;72.83;99207.97;5024112;28;20056;-76
2023/03/28 08:14:56;;;;;;;9.50;6.45;;;;;;;2.10;71.79;99200.38;5036774;28;20485;-76
2023/03/28 08:17:25;;;;;;;12.07;6.80;;;;;;;2.15;71.97;99205.19;5037726;28;20052;-77
2023/03/28 08:19:52;;;;;;;12.50;6.18;;;;;;;2.07;71.10;99203.34;5052630;28;20115;-76
2023/03/28 08:22:26;;;;;;;13.97;7.17;;;;;;;2.42;73.21;99208.31;5040523;28;20025;-76
2023/03/28 08:25:04;;;;;;;7.93;5.18;;;;;;;2.26;70.09;99197.72;5051543;28;20512;-75
2023/03/28 08:27:30;;;;;;;13.13;6.82;;;;;;;2.35;71.43;99211.81;5019126;28;20032;-76
2023/03/28 08:30:00;;;;;;;12.38;5.22;;;;;;;2.54;70.34;99217.63;5011187;28;20058;-76
2023/03/28 08:32:28;;;;;;;10.52;4.95;;;;;;;2.56;70.62;99215.63;5029337;28;20084;-75
2023/03/28 08:34:56;;;;;;;13.18;5.50;;;;;;;2.30;70.94;99217.63;5042387;28;20073;-76
2023/03/28 08:37:23;;;;;;;10.15;4.97;;;;;;;2.42;70.85;99212.81;5017941;28;20135;-76
2023/03/28 08:39:50;;;;;;;13.50;6.05;;;;;;;2.51;70.90;99207.31;5027179;28;20115;-76
2023/03/28 08:42:55;;;;;;;10.38;5.65;;;;;;;2.65;70.24;99214.59;5027015;28;20017;-76
2023/03/28 08:45:51;;;;;;;12.05;6.07;;;;;;;2.69;69.77;99209.75;4967426;28;20109;-76
2023/03/28 08:48:23;;;;;;;12.02;5.35;;;;;;;2.81;70.28;99221.69;5019309;28;20041;-76
2023/03/28 08:51:04;;;;;;;10.40;4.10;;;;;;;2.68;70.27;99216.09;5004303;28;20060;-76
2023/03/28 08:53:37;;;;;;;9.35;4.15;;;;;;;2.79;69.77;99215.72;5016965;28;20037;-75
2023/03/28 08:56:05;;;;;;;10.63;5.72;;;;;;;3.01;69.92;99216.84;5024344;28;20078;-76
2023/03/28 08:58:37;;;;;;;12.15;4.97;;;;;;;3.00;69.32;99225.81;5050562;28;20021;-76
2023/03/28 09:01:03;;;;;;;10.65;5.10;;;;;;;2.99;69.60;99216.19;5042500;28;20600;-75
2023/03/28 09:03:31;;;;;;;9.63;4.68;;;;;;;3.00;69.29;99218.66;5029835;28;20017;-76
2023/03/28 09:06:25;;;;;;;9.60;3.65;;;;;;;2.97;67.84;99218.16;5028805;28;20032;-76
2023/03/28 09:09:00;;;;;;;8.48;3.75;;;;;;;3.23;67.86;99229.38;5038312;28;20029;-76
2023/03/28 09:11:53;;;;;;;8.18;3.40;;;;;;;3.19;66.55;99222.75;5014631;28;20072;-76
2023/03/28 09:14:41;;;;;;;10.45;3.42;;;;;;;3.20;65.17;99224.38;5046304;28;20078;-76
2023/03/28 09:17:40;;;;;;;10.80;3.42;;;;;;;3.54;66.78;99227.59;5043085;28;20448;-76
2023/03/28 09:20:35;;;;;;;11.45;3.47;;;;;;;3.33;66.02;99219.38;5032966;28;20562;-76
2023/03/28 09:23:21;;;;;;;8.75;3.10;;;;;;;3.59;65.62;99233.22;5046399;28;20043;-76
2023/03/28 09:26:12;;;;;;;11.00;3.35;;;;;;;3.64;64.52;99236.16;5066494;28;20048;-77
2023/03/28 09:28:57;;;;;;;6.85;2.83;;;;;;;3.57;65.42;99237.88;5033488;28;20116;-76
2023/03/28 09:31:26;;;;;;;8.05;3.00;;;;;;;3.53;62.85;99225.06;5032987;28;20032;-73
2023/03/28 09:33:58;;;;;;;11.10;3.70;;;;;;;3.85;64.21;99231.03;5050874;28;20456;-76
2023/03/28 09:36:32;;;;;;;9.85;3.20;;;;;;;3.88;63.47;99230.69;5026223;28;20036;-77
2023/03/28 09:39:24;;;;;;;10.20;2.95;;;;;;;3.80;64.64;99236.09;5006683;28;20039;-76
2023/03/28 09:42:16;;;;;;;10.13;2.88;;;;;;;3.99;63.12;99238.28;5027050;28;20029;-76
2023/03/28 09:44:51;;;;;;;11.23;3.20;;;;;;;3.80;61.13;99228.09;5054137;28;20119;-76
2023/03/28 09:47:36;;;;;;;13.00;3.35;;;;;;;4.51;63.04;99227.72;5055525;28;20111;-75
2023/03/28 09:50:12;;;;;;;9.32;2.95;;;;;;;4.17;60.59;99241.50;5008063;28;20461;-76
2023/03/28 09:52:39;;;;;;;8.95;2.83;;;;;;;4.40;63.00;99243.31;5035809;28;20033;-76
2023/03/28 09:55:05;;;;;;;6.85;2.85;;;;;;;4.10;60.99;99237.88;5050939;28;20051;-76
2023/03/28 09:58:00;;;;;;;8.25;2.50;;;;;;;3.75;57.97;99227.78;5025928;28;20493;-76
2023/03/28 10:00:26;;;;;;;12.27;2.97;;;;;;;4.19;60.55;99234.16;5029425;28;20041;-76
2023/03/28 10:03:28;;;;;;;10.73;2.80;;;;;;;4.46;59.03;99237.25;5035590;28;20093;-76
2023/03/28 10:05:55;;;;;;;6.80;2.55;;;;;;;4.58;56.74;99236.66;5028136;28;20109;-76
2023/03/28 10:08:34;;;;;;;5.53;2.40;;;;;;;4.50;57.90;99238.56;5024358;28;20054;-76
2023/03/28 10:11:16;;;;;;;6.38;2.40;;;;;;;5.23;57.70;99233.28;5013001;28;20048;-76
2023/03/28 10:13:50;;;;;;;8.10;3.13;;;;;;;5.02;56.94;99226.03;5020279;28;20110;-76
2023/03/28 10:16:50;;;;;;;11.10;3.10;;;;;;;4.94;58.11;99223.47;5112107;27;20343;-76
2023/03/28 10:19:38;;;;;;;7.50;2.25;;;;;;;5.08;53.76;99230.66;5083009;28;20055;-77
2023/03/28 10:22:24;;;;;;;6.13;2.33;;;;;;;4.96;57.55;99216.09;5059475;28;20032;-76
2023/03/28 10:24:51;;;;;;;8.02;2.55;;;;;;;4.79;58.21;99226.09;5037876;28;20036;-76
2023/03/28 10:27:24;;;;;;;5.85;2.30;;;;;;;4.56;58.60;99227.16;5061425;28;20024;-76
2023/03/28 10:29:53;;;;;;;7.97;2.70;;;;;;;4.57;57.82;99223.50;5045419;28;20039;-76
2023/03/28 10:32:24;;;;;;;6.88;2.42;;;;;;;4.15;58.42;99227.50;5050465;28;20131;-76
2023/03/28 10:35:26;;;;;;;8.05;2.50;;;;;;;5.02;58.25;99228.69;5055331;28;20048;-77
2023/03/28 10:38:14;;;;;;;8.20;2.38;;;;;;;5.23;55.61;99222.59;5061915;28;20041;-76
2023/03/28 10:41:20;;;;;;;5.93;2.70;;;;;;;5.96;57.33;99225.16;5065354;28;20072;-76
2023/03/28 10:44:16;;;;;;;8.77;2.60;;;;;;;5.52;56.76;99236.78;5055421;28;20031;-75
2023/03/28 10:46:47;;;;;;;7.45;2.33;;;;;;;5.60;56.13;99215.28;5069169;28;20055;-76
2023/03/28 10:49:43;;;;;;;11.50;3.38;;;;;;;5.34;56.99;99220.31;5077036;28;20036;-76
2023/03/28 10:52:31;;;;;;;9.30;2.75;;;;;;;5.02;57.73;99231.34;5055913;28;20130;-76
2023/03/28 10:55:15;;;;;;;7.40;2.38;;;;;;;4.82;56.50;99230.25;5039527;28;20569;-76
2023/03/28 10:58:37;;;;;;;11.75;3.00;;;;;;;4.79;56.82;99225.28;5058527;28;20028;-76
2023/03/28 11:01:16;;;;;;;6.57;2.28;;;;;;;4.85;55.49;99225.38;5059795;28;20571;-76
2023/03/28 11:04:27;;;;;;;9.40;2.55;;;;;;;5.33;56.81;99224.00;5071694;28;20047;-76
2023/03/28 11:07:28;;;;;;;8.13;2.72;;;;;;;5.99;55.91;99230.97;5068773;28;20036;-76
2023/03/28 11:10:23;;;;;;;5.35;2.03;;;;;;;5.30;53.22;99236.88;5085526;28;20043;-76
2023/03/28 11:13:20;;;;;;;9.38;2.42;;;;;;;5.28;52.95;99231.72;5085730;28;20048;-76
2023/03/28 11:15:59;;;;;;;5.90;2.17;;;;;;;5.16;51.27;99227.88;5052309;28;20097;-76
2023/03/28 11:18:45;;;;;;;7.53;2.30;;;;;;;5.36;51.53;99212.13;5090589;28;20043;-76
2023/03/28 11:21:25;;;;;;;5.40;2.33;;;;;;;5.38;52.73;99215.44;5067999;28;20039;-76
2023/03/28 11:23:54;;;;;;;7.82;3.85;;;;;;;5.70;51.90;99219.50;5048581;28;20706;-76
2023/03/28 11:26:48;;;;;;;8.75;4.68;;;;;;;5.52;52.10;99212.72;5061675;28;20163;-76
2023/03/28 11:29:54;;;;;;;8.63;3.45;;;;;;;5.55;51.93;99212.34;5066729;28;20174;-76
2023/03/28 11:32:29;;;;;;;7.82;2.85;;;;;;;6.19;52.66;99204.41;5051902;28;20037;-76
2023/03/28 11:35:04;;;;;;;7.85;2.10;;;;;;;6.24;51.65;99188.63;5034992;28;20033;-76
2023/03/28 11:37:35;;;;;;;7.90;2.53;;;;;;;6.19;51.37;99191.06;5035371;28;20403;-77
2023/03/28 11:40:12;;;;;;;12.10;6.38;;;;;;;5.73;51.94;99193.25;5042911;28;20033;-76
2023/03/28 11:42:54;;;;;;;7.70;2.88;;;;;;;6.04;52.22;99174.25;5059354;28;20028;-76
2023/03/28 11:45:38;;;;;;;9.20;2.75;;;;;;;5.92;51.94;99183.81;5038193;28;20024;-76
2023/03/28 11:48:10;;;;;;;7.23;3.17;;;;;;;5.91;52.48;99179.47;5056795;28;20064;-76
2023/03/28 11:51:03;;;;;;;7.85;2.85;;;;;;;6.04;52.00;99174.25;5072722;28;20478;-76
2023/03/28 11:53:54;;;;;;;11.40;2.88;;;;;;;6.03;51.85;99169.91;5041880;28;20040;-76
2023/03/28 11:56:42;;;;;;;10.40;4.45;;;;;;;6.29;50.18;99167.47;5056007;28;20060;-76
2023/03/28 11:59:38;;;;;;;6.07;2.38;;;;;;;6.34;49.20;99169.59;5049599;28;20116;-76
2023/03/28 12:02:29;;;;;;;9.38;2.25;;;;;;;7.96;44.14;99158.00;5070513;28;20115;-76
2023/03/28 12:05:06;;;;;;;10.73;4.15;;;;;;;8.38;47.86;99151.47;5070496;28;20040;-76